createdAt,value
2019-03-19T00:02:14.629Z,5.51
2019-03-19T00:05:04.634Z,5.53
2019-03-19T00:07:54.461Z,5.53
2019-03-19T00:10:44.320Z,5.53
2019-03-19T00:13:34.286Z,5.50
2019-03-19T00:16:24.110Z,5.48
2019-03-19T00:19:13.980Z,5.41
2019-03-19T00:22:03.829Z,5.48
2019-03-19T00:24:53.671Z,5.37
2019-03-19T00:27:43.623Z,5.39
2019-03-19T00:30:33.529Z,5.30
2019-03-19T00:33:23.408Z,5.20
2019-03-19T00:35:53.896Z,5.12
2019-03-19T00:38:43.741Z,5.24
2019-03-19T00:41:33.597Z,5.29
2019-03-19T14:54:14.271Z,9.67
2019-03-19T14:57:04.074Z,9.64
2019-03-19T14:59:53.828Z,9.75
2019-03-19T15:02:43.653Z,10.02
2019-03-19T15:05:33.443Z,10.01
2019-03-19T15:08:25.430Z,9.91
2019-03-19T15:11:14.689Z,9.62
2019-03-19T15:14:04.508Z,9.42
2019-03-19T15:17:04.512Z,9.35
2019-03-19T15:19:37.124Z,9.39
2019-03-19T15:22:07.675Z,9.36
2019-03-19T15:24:57.465Z,9.34
2019-03-19T15:27:47.230Z,9.32
2019-03-19T15:30:37.123Z,9.48
2019-03-19T15:33:09.466Z,9.38
2019-03-19T15:35:59.270Z,9.38
2019-03-19T15:38:49.046Z,9.36
2019-03-19T15:41:39.035Z,9.41
2019-03-19T15:44:28.870Z,9.30
2019-03-19T15:47:18.677Z,9.37
2019-03-19T15:50:10.228Z,9.38
2019-03-19T15:53:00.029Z,9.23
2019-03-19T15:55:49.792Z,9.07
2019-03-19T15:58:39.605Z,9.06
2019-03-19T16:01:29.416Z,9.00
2019-03-19T16:04:12.877Z,8.98
2019-03-19T16:07:02.671Z,8.95
2019-03-19T16:09:52.470Z,8.94
2019-03-19T16:12:42.269Z,8.90
2019-03-19T16:15:32.084Z,8.77
2019-03-19T16:18:21.853Z,8.67
2019-03-19T16:21:11.709Z,8.62
2019-03-19T16:24:01.477Z,8.58
2019-03-19T16:26:31.978Z,8.66
2019-03-19T16:29:21.745Z,8.56
2019-03-19T16:31:52.140Z,8.58
2019-03-19T16:34:41.933Z,8.48
2019-03-19T16:37:31.746Z,8.45
2019-03-19T16:40:21.519Z,8.45
2019-03-19T16:43:11.288Z,8.48
2019-03-19T16:46:01.159Z,8.46
2019-03-19T16:48:50.942Z,8.36
2019-03-19T16:51:40.741Z,8.37
2019-03-19T16:54:30.549Z,8.36
2019-03-19T16:57:20.338Z,8.44
2019-03-19T17:00:13.021Z,8.42
2019-03-19T17:03:02.777Z,8.39
2019-03-19T17:05:52.560Z,8.31
2019-03-19T17:08:42.403Z,8.41
2019-03-19T17:11:32.230Z,8.34
2019-03-19T17:14:22.001Z,8.26
2019-03-19T17:17:11.837Z,8.27
2019-03-19T17:20:01.596Z,8.18
2019-03-19T17:22:51.403Z,8.17
2019-03-19T17:25:41.177Z,8.09
2019-03-19T17:28:31.018Z,8.09
2019-03-19T17:31:01.455Z,8.11
2019-03-19T17:33:31.892Z,7.99
2019-03-19T17:36:21.664Z,7.94
2019-03-19T17:39:11.498Z,8.11
2019-03-19T17:42:01.299Z,8.05
2019-03-19T17:44:51.094Z,8.06
2019-03-19T17:50:37.720Z,8.00
2019-03-19T17:53:27.536Z,8.01
2019-03-19T17:56:17.484Z,7.96
2019-03-19T17:59:07.612Z,7.88
2019-03-19T18:01:57.428Z,7.88
2019-03-19T18:04:47.228Z,7.96
2019-03-19T18:07:37.037Z,7.96
2019-03-19T18:10:07.715Z,7.98
2019-03-19T18:12:57.531Z,7.87
2019-03-19T18:15:47.323Z,7.89
2019-03-19T18:18:37.135Z,7.94
2019-03-19T18:21:07.560Z,7.84
2019-03-19T18:23:57.570Z,7.90
2019-03-19T18:26:47.361Z,7.89
2019-03-19T18:29:37.212Z,7.82
2019-03-19T18:32:07.644Z,7.79
2019-03-19T18:34:57.514Z,7.86
2019-03-19T18:37:47.263Z,7.85
2019-03-19T18:40:37.197Z,7.81
2019-03-19T18:43:07.755Z,7.89
2019-03-19T18:45:57.714Z,7.82
2019-03-19T18:48:47.543Z,7.73
2019-03-19T18:51:37.340Z,7.72
2019-03-19T18:54:27.102Z,7.66
2019-03-19T18:57:16.918Z,7.68
2019-03-19T19:03:32.118Z,7.62
2019-03-19T19:06:21.927Z,7.62
2019-03-19T19:09:11.828Z,7.60
2019-03-19T19:12:01.668Z,7.55
2019-03-19T19:14:51.483Z,7.53
2019-03-19T19:17:41.257Z,7.43
2019-03-19T19:20:31.064Z,7.32
2019-03-19T19:23:20.852Z,7.21
2019-03-19T19:26:10.663Z,7.13
2019-03-19T19:29:00.466Z,7.16
2019-03-19T19:31:50.253Z,7.08
2019-03-19T19:34:40.045Z,7.02
2019-03-19T19:37:29.861Z,7.05
2019-03-19T19:40:19.617Z,7.00
2019-03-19T19:43:09.452Z,6.91
2019-03-19T19:45:59.248Z,6.96
2019-03-19T19:48:49.064Z,6.86
2019-03-19T19:51:38.852Z,6.85
2019-03-19T19:54:28.660Z,6.85
2019-03-19T19:56:59.058Z,6.76
2019-03-19T19:59:48.931Z,6.74
2019-03-19T20:02:38.714Z,6.79
2019-03-19T20:05:28.534Z,6.69
2019-03-19T20:07:58.914Z,6.67
2019-03-19T20:10:48.735Z,6.66
2019-03-19T20:13:38.521Z,6.63
2019-03-19T20:16:28.336Z,6.55
2019-03-19T20:18:58.816Z,6.53
2019-03-19T20:21:48.641Z,6.48
2019-03-19T20:24:38.468Z,6.42
2019-03-19T20:27:28.313Z,6.38
2019-03-19T20:29:58.869Z,6.34
2019-03-19T20:32:48.660Z,6.20
2019-03-19T20:35:38.431Z,6.21
2019-03-19T20:38:28.234Z,6.09
2019-03-19T20:40:58.652Z,5.96
2019-03-19T20:43:48.510Z,6.03
2019-03-19T20:46:38.309Z,5.89
2019-03-19T20:49:28.195Z,5.85
2019-03-19T20:51:58.717Z,5.83
2019-03-19T20:54:48.534Z,5.96
2019-03-19T20:57:38.339Z,5.98
2019-03-19T21:00:10.734Z,5.85
2019-03-19T21:02:41.306Z,5.84
2019-03-19T21:05:31.112Z,5.86
2019-03-19T21:08:20.907Z,5.80
2019-03-19T21:11:10.780Z,5.76
2019-03-19T21:14:00.570Z,5.78
2019-03-19T21:16:50.395Z,5.67
2019-03-19T21:19:40.196Z,5.65
2019-03-19T21:22:30.007Z,5.60
2019-03-19T21:25:19.808Z,5.66
2019-03-19T21:28:13.944Z,5.79
2019-03-19T21:30:47.297Z,5.70
2019-03-19T21:33:37.643Z,5.72
2019-03-19T21:36:09.703Z,5.68
2019-03-19T21:38:59.544Z,5.66
2019-03-19T21:41:49.354Z,5.58
2019-03-19T21:44:39.693Z,5.60
2019-03-19T21:47:29.538Z,5.69
2019-03-19T21:50:19.386Z,5.67
2019-03-19T21:53:09.167Z,5.59
2019-03-19T21:55:59.103Z,5.47
2019-03-19T21:58:48.897Z,5.43
2019-03-19T22:01:38.776Z,5.38
2019-03-19T22:04:28.635Z,5.51
2019-03-19T22:06:59.079Z,5.29
2019-03-19T22:09:48.929Z,5.37
2019-03-19T22:12:38.745Z,5.41
2019-03-19T22:15:28.711Z,5.50
2019-03-19T22:17:59.140Z,5.46
2019-03-19T22:20:48.986Z,5.36
2019-03-19T22:23:38.844Z,5.39
2019-03-19T22:26:28.639Z,5.33
2019-03-19T22:28:59.080Z,5.29
2019-03-19T22:31:49.736Z,5.25
2019-03-19T22:34:39.567Z,5.25
2019-03-19T22:37:29.410Z,5.27
2019-03-19T22:40:19.439Z,5.33
2019-03-19T22:43:09.282Z,5.17
2019-03-19T22:45:59.131Z,5.05
2019-03-19T22:48:49.124Z,5.08
2019-03-19T22:51:19.678Z,5.05
2019-03-19T22:54:09.556Z,5.22
2019-03-19T22:56:59.329Z,5.19
2019-03-19T22:59:49.123Z,5.07
2019-03-19T23:02:38.929Z,4.89
2019-03-19T23:05:28.707Z,4.80
2019-03-19T23:07:59.092Z,4.94
2019-03-19T23:10:48.866Z,4.85
2019-03-19T23:13:38.677Z,4.76
2019-03-19T23:16:28.455Z,4.71
2019-03-19T23:18:58.902Z,4.82
2019-03-19T23:21:48.660Z,4.83
2019-03-19T23:24:38.525Z,4.83
2019-03-19T23:27:28.299Z,4.74
2019-03-19T23:29:58.674Z,4.80
2019-03-19T23:32:29.062Z,4.73
2019-03-19T23:34:59.460Z,4.60
2019-03-19T23:37:49.233Z,4.66
2019-03-19T23:40:39.040Z,4.65
2019-03-19T23:43:28.815Z,4.69
2019-03-19T23:45:59.225Z,4.77
2019-03-19T23:48:49.039Z,4.62
2019-03-19T23:51:38.915Z,4.45
2019-03-19T23:54:28.698Z,4.37
2019-03-19T23:57:00.787Z,4.40
2019-03-19T23:59:50.582Z,4.46
